sensor_id;sensor_type;location;lat;lon;timestamp;pressure;altitude;pressure_sealevel;temperature;humidity
9796;BME280;4937;42.680;27.704;2024-01-07T00:00:42;100608.25;;;9.34;77.48
9796;BME280;4937;42.680;27.704;2024-01-07T00:03:07;100616.63;;;9.30;74.29
9796;BME280;4937;42.680;27.704;2024-01-07T00:05:35;100603.75;;;9.11;73.27
9796;BME280;4937;42.680;27.704;2024-01-07T00:08:01;100606.38;;;8.98;75.35
9796;BME280;4937;42.680;27.704;2024-01-07T00:10:27;100603.13;;;8.87;76.63
9796;BME280;4937;42.680;27.704;2024-01-07T00:12:52;100613.00;;;8.85;77.62
9796;BME280;4937;42.680;27.704;2024-01-07T00:15:18;100612.66;;;8.83;79.21
9796;BME280;4937;42.680;27.704;2024-01-07T00:17:43;100610.16;;;8.72;76.53
9796;BME280;4937;42.680;27.704;2024-01-07T00:20:09;100601.97;;;8.69;78.03
9796;BME280;4937;42.680;27.704;2024-01-07T00:22:35;100599.66;;;8.67;79.89
9796;BME280;4937;42.680;27.704;2024-01-07T00:25:01;100603.97;;;8.68;79.53
9796;BME280;4937;42.680;27.704;2024-01-07T00:27:26;100612.13;;;8.72;80.03
9796;BME280;4937;42.680;27.704;2024-01-07T00:29:52;100590.13;;;8.72;80.45
9796;BME280;4937;42.680;27.704;2024-01-07T00:32:17;100595.47;;;8.79;81.80
9796;BME280;4937;42.680;27.704;2024-01-07T00:34:44;100592.28;;;8.80;79.86
9796;BME280;4937;42.680;27.704;2024-01-07T00:37:09;100594.69;;;8.78;79.47
9796;BME280;4937;42.680;27.704;2024-01-07T00:39:35;100573.81;;;8.81;79.32
9796;BME280;4937;42.680;27.704;2024-01-07T00:42:00;100567.88;;;8.66;78.38
9796;BME280;4937;42.680;27.704;2024-01-07T00:44:26;100578.97;;;8.63;79.02
9796;BME280;4937;42.680;27.704;2024-01-07T00:46:51;100575.88;;;8.61;78.79
9796;BME280;4937;42.680;27.704;2024-01-07T00:49:17;100562.91;;;8.61;79.69
9796;BME280;4937;42.680;27.704;2024-01-07T00:51:42;100566.22;;;8.53;80.97
9796;BME280;4937;42.680;27.704;2024-01-07T00:54:08;100559.13;;;8.55;82.56
9796;BME280;4937;42.680;27.704;2024-01-07T00:56:33;100543.59;;;8.65;85.51
9796;BME280;4937;42.680;27.704;2024-01-07T00:58:59;100543.25;;;8.79;83.47
9796;BME280;4937;42.680;27.704;2024-01-07T01:01:24;100534.38;;;8.87;82.14
9796;BME280;4937;42.680;27.704;2024-01-07T01:03:50;100524.41;;;8.93;80.10
9796;BME280;4937;42.680;27.704;2024-01-07T01:06:15;100513.34;;;8.97;80.64
9796;BME280;4937;42.680;27.704;2024-01-07T01:08:41;100510.41;;;9.04;81.87
9796;BME280;4937;42.680;27.704;2024-01-07T01:11:09;100509.56;;;9.07;81.50
9796;BME280;4937;42.680;27.704;2024-01-07T01:13:35;100500.44;;;9.10;80.46
9796;BME280;4937;42.680;27.704;2024-01-07T01:16:00;100504.41;;;9.09;74.68
9796;BME280;4937;42.680;27.704;2024-01-07T01:18:26;100504.31;;;8.96;73.62
9796;BME280;4937;42.680;27.704;2024-01-07T01:20:51;100501.41;;;8.71;71.57
9796;BME280;4937;42.680;27.704;2024-01-07T01:23:17;100486.81;;;8.42;74.89
9796;BME280;4937;42.680;27.704;2024-01-07T01:25:42;100493.88;;;8.24;75.92
9796;BME280;4937;42.680;27.704;2024-01-07T01:28:09;100502.09;;;8.08;77.00
9796;BME280;4937;42.680;27.704;2024-01-07T01:30:34;100499.16;;;7.98;76.22
9796;BME280;4937;42.680;27.704;2024-01-07T01:33:00;100508.19;;;7.79;77.65
9796;BME280;4937;42.680;27.704;2024-01-07T01:35:27;100506.13;;;7.64;78.04
9796;BME280;4937;42.680;27.704;2024-01-07T01:40:36;100506.34;;;7.34;79.91
9796;BME280;4937;42.680;27.704;2024-01-07T01:43:02;100500.84;;;7.34;81.05
9796;BME280;4937;42.680;27.704;2024-01-07T01:45:27;100491.00;;;7.36;81.73
9796;BME280;4937;42.680;27.704;2024-01-07T01:47:53;100490.53;;;7.41;82.23
9796;BME280;4937;42.680;27.704;2024-01-07T01:50:18;100482.94;;;7.49;82.06
9796;BME280;4937;42.680;27.704;2024-01-07T01:52:45;100483.97;;;7.55;81.78
9796;BME280;4937;42.680;27.704;2024-01-07T01:55:11;100476.38;;;7.62;80.96
9796;BME280;4937;42.680;27.704;2024-01-07T01:57:39;100483.28;;;7.70;81.96
9796;BME280;4937;42.680;27.704;2024-01-07T02:00:05;100480.78;;;7.95;84.55
9796;BME280;4937;42.680;27.704;2024-01-07T02:02:32;100467.06;;;8.31;85.25
9796;BME280;4937;42.680;27.704;2024-01-07T02:05:02;100450.75;;;8.56;83.27
9796;BME280;4937;42.680;27.704;2024-01-07T02:07:29;100451.75;;;8.78;83.04
9796;BME280;4937;42.680;27.704;2024-01-07T02:09:55;100459.81;;;9.02;81.05
9796;BME280;4937;42.680;27.704;2024-01-07T02:12:21;100457.88;;;9.15;79.22
9796;BME280;4937;42.680;27.704;2024-01-07T02:14:46;100450.34;;;9.31;76.84
9796;BME280;4937;42.680;27.704;2024-01-07T02:17:12;100447.75;;;9.40;78.78
9796;BME280;4937;42.680;27.704;2024-01-07T02:19:37;100442.59;;;9.55;77.87
9796;BME280;4937;42.680;27.704;2024-01-07T02:22:03;100430.84;;;9.79;78.37
9796;BME280;4937;42.680;27.704;2024-01-07T02:24:29;100424.06;;;10.34;75.51
9796;BME280;4937;42.680;27.704;2024-01-07T02:26:56;100419.91;;;10.76;75.13
9796;BME280;4937;42.680;27.704;2024-01-07T02:29:21;100414.94;;;11.06;74.05
9796;BME280;4937;42.680;27.704;2024-01-07T02:31:47;100410.91;;;11.41;73.23
9796;BME280;4937;42.680;27.704;2024-01-07T02:34:12;100408.63;;;11.70;72.28
9796;BME280;4937;42.680;27.704;2024-01-07T02:36:38;100418.16;;;12.00;71.53
9796;BME280;4937;42.680;27.704;2024-01-07T02:39:03;100400.38;;;12.10;71.03
9796;BME280;4937;42.680;27.704;2024-01-07T02:41:29;100396.28;;;12.23;69.99
9796;BME280;4937;42.680;27.704;2024-01-07T02:43:54;100396.78;;;12.40;68.80
9796;BME280;4937;42.680;27.704;2024-01-07T02:46:20;100377.91;;;12.47;67.42
9796;BME280;4937;42.680;27.704;2024-01-07T02:48:46;100370.69;;;12.59;67.40
9796;BME280;4937;42.680;27.704;2024-01-07T02:51:11;100380.22;;;12.58;66.90
9796;BME280;4937;42.680;27.704;2024-01-07T02:53:37;100367.47;;;12.60;67.36
9796;BME280;4937;42.680;27.704;2024-01-07T02:56:03;100360.41;;;12.59;67.34
9796;BME280;4937;42.680;27.704;2024-01-07T02:58:28;100369.47;;;12.60;66.80
9796;BME280;4937;42.680;27.704;2024-01-07T03:00:54;100352.28;;;12.56;67.30
9796;BME280;4937;42.680;27.704;2024-01-07T03:03:19;100345.50;;;12.57;66.57
9796;BME280;4937;42.680;27.704;2024-01-07T03:05:45;100364.53;;;12.55;65.65
9796;BME280;4937;42.680;27.704;2024-01-07T03:08:10;100342.56;;;12.60;65.15
9796;BME280;4937;42.680;27.704;2024-01-07T03:10:38;100335.22;;;12.66;65.23
9796;BME280;4937;42.680;27.704;2024-01-07T03:13:04;100320.91;;;12.59;65.16
9796;BME280;4937;42.680;27.704;2024-01-07T03:15:29;100341.06;;;12.59;65.23
9796;BME280;4937;42.680;27.704;2024-01-07T03:17:57;100328.13;;;12.56;65.88
9796;BME280;4937;42.680;27.704;2024-01-07T03:20:22;100338.56;;;12.43;66.12
9796;BME280;4937;42.680;27.704;2024-01-07T03:22:48;100315.69;;;12.34;66.98
9796;BME280;4937;42.680;27.704;2024-01-07T03:25:13;100315.06;;;12.39;66.47
9796;BME280;4937;42.680;27.704;2024-01-07T03:27:39;100318.91;;;12.41;66.78
9796;BME280;4937;42.680;27.704;2024-01-07T03:30:05;100315.84;;;12.39;67.15
9796;BME280;4937;42.680;27.704;2024-01-07T03:32:30;100307.09;;;12.50;66.28
9796;BME280;4937;42.680;27.704;2024-01-07T03:34:56;100297.41;;;12.54;67.20
9796;BME280;4937;42.680;27.704;2024-01-07T03:37:21;100290.97;;;12.57;66.03
9796;BME280;4937;42.680;27.704;2024-01-07T03:39:47;100293.72;;;12.57;66.16
9796;BME280;4937;42.680;27.704;2024-01-07T03:42:13;100303.69;;;12.64;65.92
9796;BME280;4937;42.680;27.704;2024-01-07T03:44:39;100305.09;;;12.68;65.94
9796;BME280;4937;42.680;27.704;2024-01-07T03:47:05;100297.09;;;12.70;65.36
9796;BME280;4937;42.680;27.704;2024-01-07T03:49:31;100289.44;;;12.74;65.16
9796;BME280;4937;42.680;27.704;2024-01-07T03:51:56;100299.88;;;12.79;64.92
9796;BME280;4937;42.680;27.704;2024-01-07T03:54:22;100306.91;;;12.80;65.23
9796;BME280;4937;42.680;27.704;2024-01-07T03:56:47;100286.94;;;12.76;65.24
9796;BME280;4937;42.680;27.704;2024-01-07T03:59:13;100301.06;;;12.78;64.94
9796;BME280;4937;42.680;27.704;2024-01-07T04:01:38;100288.81;;;12.79;65.36
9796;BME280;4937;42.680;27.704;2024-01-07T04:04:04;100293.56;;;12.70;65.52
9796;BME280;4937;42.680;27.704;2024-01-07T04:06:29;100292.47;;;12.67;66.79
9796;BME280;4937;42.680;27.704;2024-01-07T04:08:55;100269.31;;;12.56;67.46
9796;BME280;4937;42.680;27.704;2024-01-07T04:11:21;100288.19;;;12.39;69.87
9796;BME280;4937;42.680;27.704;2024-01-07T04:13:46;100284.66;;;12.30;69.98
9796;BME280;4937;42.680;27.704;2024-01-07T04:16:18;100271.16;;;12.23;70.69
9796;BME280;4937;42.680;27.704;2024-01-07T04:18:44;100267.59;;;12.22;69.91
9796;BME280;4937;42.680;27.704;2024-01-07T04:21:10;100267.59;;;12.13;71.19
9796;BME280;4937;42.680;27.704;2024-01-07T04:23:36;100280.47;;;12.07;71.39
9796;BME280;4937;42.680;27.704;2024-01-07T04:26:02;100274.19;;;12.16;70.09
9796;BME280;4937;42.680;27.704;2024-01-07T04:28:27;100276.03;;;12.10;70.63
9796;BME280;4937;42.680;27.704;2024-01-07T04:30:52;100279.53;;;12.01;71.27
9796;BME280;4937;42.680;27.704;2024-01-07T04:33:18;100262.34;;;11.97;71.63
9796;BME280;4937;42.680;27.704;2024-01-07T04:35:43;100270.03;;;12.02;71.92
9796;BME280;4937;42.680;27.704;2024-01-07T04:38:09;100267.84;;;11.97;72.28
9796;BME280;4937;42.680;27.704;2024-01-07T04:40:34;100269.88;;;11.97;71.69
9796;BME280;4937;42.680;27.704;2024-01-07T04:43:00;100253.47;;;12.02;71.14
9796;BME280;4937;42.680;27.704;2024-01-07T04:45:25;100265.28;;;12.03;71.48
9796;BME280;4937;42.680;27.704;2024-01-07T04:47:51;100264.66;;;11.99;71.42
9796;BME280;4937;42.680;27.704;2024-01-07T04:50:16;100269.72;;;12.00;71.89
9796;BME280;4937;42.680;27.704;2024-01-07T04:52:45;100270.03;;;12.02;72.39
9796;BME280;4937;42.680;27.704;2024-01-07T04:55:11;100263.88;;;11.98;71.62
9796;BME280;4937;42.680;27.704;2024-01-07T04:57:37;100266.03;;;12.03;71.64
9796;BME280;4937;42.680;27.704;2024-01-07T05:00:03;100257.75;;;12.03;71.55
9796;BME280;4937;42.680;27.704;2024-01-07T05:02:29;100249.47;;;12.03;72.19
9796;BME280;4937;42.680;27.704;2024-01-07T05:04:54;100255.13;;;12.09;71.09
9796;BME280;4937;42.680;27.704;2024-01-07T05:07:20;100248.56;;;12.06;72.13
9796;BME280;4937;42.680;27.704;2024-01-07T05:09:45;100252.22;;;12.03;72.15
9796;BME280;4937;42.680;27.704;2024-01-07T05:12:11;100237.94;;;11.95;72.97
9796;BME280;4937;42.680;27.704;2024-01-07T05:14:37;100250.22;;;11.94;73.19
9796;BME280;4937;42.680;27.704;2024-01-07T05:17:03;100239.47;;;11.87;73.55
9796;BME280;4937;42.680;27.704;2024-01-07T05:19:29;100245.44;;;11.86;72.50
9796;BME280;4937;42.680;27.704;2024-01-07T05:21:55;100250.50;;;11.78;73.03
9796;BME280;4937;42.680;27.704;2024-01-07T05:24:20;100244.06;;;11.90;72.16
9796;BME280;4937;42.680;27.704;2024-01-07T05:26:46;100258.03;;;11.96;71.28
9796;BME280;4937;42.680;27.704;2024-01-07T05:29:11;100245.75;;;11.97;71.07
9796;BME280;4937;42.680;27.704;2024-01-07T05:31:38;100240.22;;;11.97;71.89
9796;BME280;4937;42.680;27.704;2024-01-07T05:34:03;100235.16;;;11.95;72.71
9796;BME280;4937;42.680;27.704;2024-01-07T05:36:29;100250.22;;;12.04;70.93
9796;BME280;4937;42.680;27.704;2024-01-07T05:38:54;100242.25;;;12.06;70.77
9796;BME280;4937;42.680;27.704;2024-01-07T05:41:20;100252.38;;;12.09;70.62
9796;BME280;4937;42.680;27.704;2024-01-07T05:43:45;100275.28;;;12.18;70.44
9796;BME280;4937;42.680;27.704;2024-01-07T05:46:11;100316.56;;;12.22;70.39
9796;BME280;4937;42.680;27.704;2024-01-07T05:48:41;100362.72;;;12.52;69.30
9796;BME280;4937;42.680;27.704;2024-01-07T05:51:07;100359.94;;;12.52;69.18
9796;BME280;4937;42.680;27.704;2024-01-07T05:53:34;100342.88;;;12.62;69.18
9796;BME280;4937;42.680;27.704;2024-01-07T05:56:00;100336.31;;;12.69;67.85
9796;BME280;4937;42.680;27.704;2024-01-07T05:58:25;100344.28;;;12.76;66.94
9796;BME280;4937;42.680;27.704;2024-01-07T06:00:51;100335.53;;;12.77;67.33
9796;BME280;4937;42.680;27.704;2024-01-07T06:03:16;100331.81;;;12.80;67.25
9796;BME280;4937;42.680;27.704;2024-01-07T06:05:42;100322.00;;;12.70;67.65
9796;BME280;4937;42.680;27.704;2024-01-07T06:08:07;100298.00;;;12.67;68.42
9796;BME280;4937;42.680;27.704;2024-01-07T06:10:33;100289.25;;;12.60;68.93
9796;BME280;4937;42.680;27.704;2024-01-07T06:12:59;100286.06;;;12.52;69.34
9796;BME280;4937;42.680;27.704;2024-01-07T06:15:24;100286.03;;;12.43;69.52
9796;BME280;4937;42.680;27.704;2024-01-07T06:17:50;100266.53;;;12.38;69.21
9796;BME280;4937;42.680;27.704;2024-01-07T06:20:15;100269.91;;;12.33;67.82
9796;BME280;4937;42.680;27.704;2024-01-07T06:22:41;100267.59;;;12.40;67.13
9796;BME280;4937;42.680;27.704;2024-01-07T06:25:07;100284.81;;;12.35;66.96
9796;BME280;4937;42.680;27.704;2024-01-07T06:27:33;100281.44;;;12.40;66.12
9796;BME280;4937;42.680;27.704;2024-01-07T06:29:58;100265.47;;;12.53;65.79
9796;BME280;4937;42.680;27.704;2024-01-07T06:32:24;100266.97;;;12.54;66.60
9796;BME280;4937;42.680;27.704;2024-01-07T06:34:50;100248.09;;;12.53;65.85
9796;BME280;4937;42.680;27.704;2024-01-07T06:37:16;100235.34;;;12.55;65.51
9796;BME280;4937;42.680;27.704;2024-01-07T06:39:41;100223.03;;;12.56;66.23
9796;BME280;4937;42.680;27.704;2024-01-07T06:42:06;100205.25;;;12.57;65.17
9796;BME280;4937;42.680;27.704;2024-01-07T06:44:32;100206.31;;;12.51;65.35
9796;BME280;4937;42.680;27.704;2024-01-07T06:46:57;100214.75;;;12.56;65.46
9796;BME280;4937;42.680;27.704;2024-01-07T06:49:23;100203.38;;;12.54;65.47
9796;BME280;4937;42.680;27.704;2024-01-07T06:51:48;100200.91;;;12.56;66.17
9796;BME280;4937;42.680;27.704;2024-01-07T06:54:14;100184.34;;;12.47;66.07
9796;BME280;4937;42.680;27.704;2024-01-07T06:56:39;100171.28;;;12.48;66.34
9796;BME280;4937;42.680;27.704;2024-01-07T06:59:05;100167.47;;;12.36;67.35
9796;BME280;4937;42.680;27.704;2024-01-07T07:01:32;100163.31;;;12.41;67.19
9796;BME280;4937;42.680;27.704;2024-01-07T07:03:58;100165.78;;;12.39;67.24
9796;BME280;4937;42.680;27.704;2024-01-07T07:06:23;100148.09;;;12.45;67.41
9796;BME280;4937;42.680;27.704;2024-01-07T07:08:49;100167.28;;;12.49;66.28
9796;BME280;4937;42.680;27.704;2024-01-07T07:11:16;100171.91;;;12.52;66.68
9796;BME280;4937;42.680;27.704;2024-01-07T07:13:41;100172.06;;;12.57;67.03
9796;BME280;4937;42.680;27.704;2024-01-07T07:16:07;100159.00;;;12.40;68.22
9796;BME280;4937;42.680;27.704;2024-01-07T07:18:33;100159.63;;;12.35;68.60
9796;BME280;4937;42.680;27.704;2024-01-07T07:20:59;100159.03;;;12.22;68.86
9796;BME280;4937;42.680;27.704;2024-01-07T07:23:25;100169.00;;;12.10;70.25
9796;BME280;4937;42.680;27.704;2024-01-07T07:25:50;100165.19;;;11.99;70.38
9796;BME280;4937;42.680;27.704;2024-01-07T07:28:16;100147.22;;;11.85;70.78
9796;BME280;4937;42.680;27.704;2024-01-07T07:30:42;100156.88;;;11.80;71.41
9796;BME280;4937;42.680;27.704;2024-01-07T07:33:08;100175.94;;;11.87;69.84
9796;BME280;4937;42.680;27.704;2024-01-07T07:35:34;100195.44;;;11.93;70.99
9796;BME280;4937;42.680;27.704;2024-01-07T07:37:59;100190.97;;;11.95;70.55
9796;BME280;4937;42.680;27.704;2024-01-07T07:40:25;100177.00;;;11.99;71.00
9796;BME280;4937;42.680;27.704;2024-01-07T07:42:51;100164.88;;;11.97;70.78
9796;BME280;4937;42.680;27.704;2024-01-07T07:45:16;100165.03;;;12.02;70.76
9796;BME280;4937;42.680;27.704;2024-01-07T07:47:42;100168.13;;;12.13;70.30
9796;BME280;4937;42.680;27.704;2024-01-07T07:50:12;100166.28;;;12.19;69.73
9796;BME280;4937;42.680;27.704;2024-01-07T07:52:38;100144.91;;;12.20;69.14
9796;BME280;4937;42.680;27.704;2024-01-07T07:55:04;100149.97;;;12.21;70.05
9796;BME280;4937;42.680;27.704;2024-01-07T07:57:29;100139.22;;;12.23;68.69
9796;BME280;4937;42.680;27.704;2024-01-07T07:59:55;100154.44;;;12.19;69.32
9796;BME280;4937;42.680;27.704;2024-01-07T08:02:20;100175.78;;;12.09;67.99
9796;BME280;4937;42.680;27.704;2024-01-07T08:04:47;100141.53;;;12.16;66.98
9796;BME280;4937;42.680;27.704;2024-01-07T08:07:12;100129.72;;;12.15;66.52
9796;BME280;4937;42.680;27.704;2024-01-07T08:09:38;100152.44;;;12.28;64.69
9796;BME280;4937;42.680;27.704;2024-01-07T08:12:05;100138.75;;;12.43;63.68
9796;BME280;4937;42.680;27.704;2024-01-07T08:14:31;100103.56;;;12.52;63.35
9796;BME280;4937;42.680;27.704;2024-01-07T08:16:57;100113.50;;;12.59;62.83
9796;BME280;4937;42.680;27.704;2024-01-07T08:19:23;100102.88;;;12.66;62.97
9796;BME280;4937;42.680;27.704;2024-01-07T08:21:48;100111.63;;;12.74;61.75
9796;BME280;4937;42.680;27.704;2024-01-07T08:24:14;100130.47;;;12.84;62.08
9796;BME280;4937;42.680;27.704;2024-01-07T08:26:39;100135.97;;;13.03;61.98
9796;BME280;4937;42.680;27.704;2024-01-07T08:29:06;100153.94;;;12.98;62.55
9796;BME280;4937;42.680;27.704;2024-01-07T08:31:31;100134.44;;;12.92;63.39
9796;BME280;4937;42.680;27.704;2024-01-07T08:33:57;100133.38;;;12.90;64.21
9796;BME280;4937;42.680;27.704;2024-01-07T08:36:23;100143.69;;;12.80;65.08
9796;BME280;4937;42.680;27.704;2024-01-07T08:38:48;100152.84;;;12.63;66.71
9796;BME280;4937;42.680;27.704;2024-01-07T08:41:17;100142.38;;;12.67;67.43
9796;BME280;4937;42.680;27.704;2024-01-07T08:43:43;100142.84;;;12.56;68.23
9796;BME280;4937;42.680;27.704;2024-01-07T08:46:10;100142.28;;;12.52;69.21
9796;BME280;4937;42.680;27.704;2024-01-07T08:48:36;100153.94;;;12.47;70.47
9796;BME280;4937;42.680;27.704;2024-01-07T08:51:01;100134.78;;;12.26;71.85
9796;BME280;4937;42.680;27.704;2024-01-07T08:53:28;100142.47;;;12.13;71.93
9796;BME280;4937;42.680;27.704;2024-01-07T08:55:54;100157.97;;;12.01;72.38
9796;BME280;4937;42.680;27.704;2024-01-07T08:58:19;100163.81;;;11.85;73.79
9796;BME280;4937;42.680;27.704;2024-01-07T09:00:45;100131.44;;;11.85;72.69
9796;BME280;4937;42.680;27.704;2024-01-07T09:03:10;100132.03;;;11.80;73.72
9796;BME280;4937;42.680;27.704;2024-01-07T09:05:36;100145.09;;;11.71;74.21
9796;BME280;4937;42.680;27.704;2024-01-07T09:08:02;100124.03;;;11.73;74.17
9796;BME280;4937;42.680;27.704;2024-01-07T09:10:28;100130.34;;;11.83;74.18
9796;BME280;4937;42.680;27.704;2024-01-07T09:12:53;100132.78;;;11.72;74.36
9796;BME280;4937;42.680;27.704;2024-01-07T09:15:19;100134.50;;;11.78;74.22
9796;BME280;4937;42.680;27.704;2024-01-07T09:17:46;100137.69;;;11.77;73.87
9796;BME280;4937;42.680;27.704;2024-01-07T09:20:12;100132.47;;;11.70;73.81
9796;BME280;4937;42.680;27.704;2024-01-07T09:22:37;100111.63;;;11.69;73.78
9796;BME280;4937;42.680;27.704;2024-01-07T09:25:04;100125.13;;;11.94;72.18
9796;BME280;4937;42.680;27.704;2024-01-07T09:27:30;100087.06;;;11.98;72.64
9796;BME280;4937;42.680;27.704;2024-01-07T09:29:56;100081.84;;;12.09;71.69
9796;BME280;4937;42.680;27.704;2024-01-07T09:32:22;100088.59;;;12.08;71.38
9796;BME280;4937;42.680;27.704;2024-01-07T09:34:47;100073.03;;;12.29;71.14
9796;BME280;4937;42.680;27.704;2024-01-07T09:37:13;100070.72;;;12.36;69.25
9796;BME280;4937;42.680;27.704;2024-01-07T09:39:42;100061.38;;;12.34;70.77
9796;BME280;4937;42.680;27.704;2024-01-07T09:42:17;100042.63;;;12.29;70.55
9796;BME280;4937;42.680;27.704;2024-01-07T09:44:43;100049.91;;;12.17;70.88
9796;BME280;4937;42.680;27.704;2024-01-07T09:47:15;100022.22;;;12.26;71.25
9796;BME280;4937;42.680;27.704;2024-01-07T09:49:41;100029.91;;;12.22;71.03
9796;BME280;4937;42.680;27.704;2024-01-07T09:52:10;100017.31;;;12.21;70.89
9796;BME280;4937;42.680;27.704;2024-01-07T09:54:37;100003.03;;;12.32;69.90
9796;BME280;4937;42.680;27.704;2024-01-07T09:57:06;99991.59;;;12.48;69.63
9796;BME280;4937;42.680;27.704;2024-01-07T09:59:33;99990.19;;;12.52;69.13
9796;BME280;4937;42.680;27.704;2024-01-07T10:01:59;99987.03;;;12.68;68.26
9796;BME280;4937;42.680;27.704;2024-01-07T10:04:25;100005.13;;;12.69;68.92
9796;BME280;4937;42.680;27.704;2024-01-07T10:06:51;99996.41;;;12.62;68.87
9796;BME280;4937;42.680;27.704;2024-01-07T10:09:19;99986.25;;;12.68;69.39
9796;BME280;4937;42.680;27.704;2024-01-07T10:11:45;99968.59;;;12.65;69.20
9796;BME280;4937;42.680;27.704;2024-01-07T10:14:10;99965.69;;;13.16;67.36
9796;BME280;4937;42.680;27.704;2024-01-07T10:16:36;99976.19;;;14.09;64.41
9796;BME280;4937;42.680;27.704;2024-01-07T10:19:02;99952.81;;;14.99;61.08
9796;BME280;4937;42.680;27.704;2024-01-07T10:21:27;99969.25;;;14.82;61.26
9796;BME280;4937;42.680;27.704;2024-01-07T10:24:13;99955.97;;;15.52;59.13
9796;BME280;4937;42.680;27.704;2024-01-07T10:26:39;99948.41;;;16.41;55.46
9796;BME280;4937;42.680;27.704;2024-01-07T10:29:06;99940.50;;;16.70;55.11
9796;BME280;4937;42.680;27.704;2024-01-07T10:31:32;99935.53;;;16.43;55.22
9796;BME280;4937;42.680;27.704;2024-01-07T10:33:57;99974.41;;;16.07;56.11
9796;BME280;4937;42.680;27.704;2024-01-07T10:36:24;99939.03;;;16.07;57.47
9796;BME280;4937;42.680;27.704;2024-01-07T10:38:50;99939.69;;;15.20;59.46
9796;BME280;4937;42.680;27.704;2024-01-07T10:41:20;99918.41;;;15.37;59.16
9796;BME280;4937;42.680;27.704;2024-01-07T10:43:47;99907.03;;;16.17;56.62
9796;BME280;4937;42.680;27.704;2024-01-07T10:46:14;99888.16;;;16.32;55.81
9796;BME280;4937;42.680;27.704;2024-01-07T10:48:59;99894.03;;;16.45;55.64
9796;BME280;4937;42.680;27.704;2024-01-07T10:51:27;99894.97;;;16.73;54.73
9796;BME280;4937;42.680;27.704;2024-01-07T10:53:53;99905.84;;;16.71;55.16
9796;BME280;4937;42.680;27.704;2024-01-07T10:56:23;99910.66;;;16.71;55.18
9796;BME280;4937;42.680;27.704;2024-01-07T10:58:53;99903.91;;;16.89;54.08
9796;BME280;4937;42.680;27.704;2024-01-07T11:01:19;99901.59;;;17.62;52.27
9796;BME280;4937;42.680;27.704;2024-01-07T11:03:57;99896.78;;;17.85;51.19
9796;BME280;4937;42.680;27.704;2024-01-07T11:06:45;99893.94;;;18.29;49.57
9796;BME280;4937;42.680;27.704;2024-01-07T11:09:35;99931.63;;;17.25;51.88
9796;BME280;4937;42.680;27.704;2024-01-07T11:12:01;99915.78;;;17.75;50.52
9796;BME280;4937;42.680;27.704;2024-01-07T11:14:41;99901.28;;;18.49;48.96
9796;BME280;4937;42.680;27.704;2024-01-07T11:17:10;99925.19;;;18.00;49.48
9796;BME280;4937;42.680;27.704;2024-01-07T11:19:36;99930.75;;;18.17;48.88
9796;BME280;4937;42.680;27.704;2024-01-07T11:22:24;99912.50;;;18.10;49.46
9796;BME280;4937;42.680;27.704;2024-01-07T11:24:59;99896.28;;;16.78;53.61
9796;BME280;4937;42.680;27.704;2024-01-07T11:27:28;99901.25;;;16.63;54.62
9796;BME280;4937;42.680;27.704;2024-01-07T11:29:55;99893.22;;;15.97;54.90
9796;BME280;4937;42.680;27.704;2024-01-07T11:32:29;99884.28;;;15.11;58.08
9796;BME280;4937;42.680;27.704;2024-01-07T11:34:54;99874.69;;;14.86;59.20
9796;BME280;4937;42.680;27.704;2024-01-07T11:37:22;99883.88;;;14.37;60.68
9796;BME280;4937;42.680;27.704;2024-01-07T11:39:50;99886.47;;;13.91;62.80
9796;BME280;4937;42.680;27.704;2024-01-07T11:42:16;99875.50;;;13.68;63.28
9796;BME280;4937;42.680;27.704;2024-01-07T11:44:51;99892.56;;;13.96;62.31
9796;BME280;4937;42.680;27.704;2024-01-07T11:47:17;99866.28;;;13.91;63.24
9796;BME280;4937;42.680;27.704;2024-01-07T11:49:46;99871.38;;;13.78;63.63
9796;BME280;4937;42.680;27.704;2024-01-07T11:52:14;99871.47;;;13.69;64.36
9796;BME280;4937;42.680;27.704;2024-01-07T11:54:40;99865.19;;;13.68;64.25
9796;BME280;4937;42.680;27.704;2024-01-07T11:57:06;99872.63;;;13.77;64.64
9796;BME280;4937;42.680;27.704;2024-01-07T11:59:35;99859.94;;;13.56;65.71
9796;BME280;4937;42.680;27.704;2024-01-07T12:02:02;99868.44;;;13.38;66.69
9796;BME280;4937;42.680;27.704;2024-01-07T12:04:30;99854.13;;;13.39;67.16
9796;BME280;4937;42.680;27.704;2024-01-07T12:06:56;99860.22;;;13.29;66.87
9796;BME280;4937;42.680;27.704;2024-01-07T12:09:21;99859.84;;;13.21;67.52
9796;BME280;4937;42.680;27.704;2024-01-07T12:11:47;99867.84;;;13.34;67.38
9796;BME280;4937;42.680;27.704;2024-01-07T12:14:13;99848.78;;;13.36;67.02
9796;BME280;4937;42.680;27.704;2024-01-07T12:16:39;99844.31;;;14.22;64.21
9796;BME280;4937;42.680;27.704;2024-01-07T12:19:05;99848.00;;;15.40;60.17
9796;BME280;4937;42.680;27.704;2024-01-07T12:21:30;99839.53;;;16.22;57.40
9796;BME280;4937;42.680;27.704;2024-01-07T12:23:56;99846.84;;;16.67;55.54
9796;BME280;4937;42.680;27.704;2024-01-07T12:26:29;99851.81;;;17.11;53.62
9796;BME280;4937;42.680;27.704;2024-01-07T12:28:57;99847.44;;;16.82;53.76
9796;BME280;4937;42.680;27.704;2024-01-07T12:31:28;99845.69;;;16.91;53.57
9796;BME280;4937;42.680;27.704;2024-01-07T12:33:53;99856.38;;;17.20;52.93
9796;BME280;4937;42.680;27.704;2024-01-07T12:36:22;99854.44;;;17.53;52.52
9796;BME280;4937;42.680;27.704;2024-01-07T12:38:49;99850.88;;;17.86;50.86
9796;BME280;4937;42.680;27.704;2024-01-07T12:41:15;99847.09;;;18.00;50.20
9796;BME280;4937;42.680;27.704;2024-01-07T12:43:40;99845.25;;;18.19;50.02
9796;BME280;4937;42.680;27.704;2024-01-07T12:46:06;99837.44;;;17.96;50.72
9796;BME280;4937;42.680;27.704;2024-01-07T12:48:32;99838.22;;;17.96;50.58
9796;BME280;4937;42.680;27.704;2024-01-07T12:50:58;99846.59;;;17.52;51.87
9796;BME280;4937;42.680;27.704;2024-01-07T12:53:24;99844.44;;;16.97;53.47
9796;BME280;4937;42.680;27.704;2024-01-07T12:55:49;99840.47;;;16.50;55.20
9796;BME280;4937;42.680;27.704;2024-01-07T12:58:15;99829.56;;;15.68;58.87
9796;BME280;4937;42.680;27.704;2024-01-07T13:00:42;99840.53;;;15.26;59.87
9796;BME280;4937;42.680;27.704;2024-01-07T13:03:08;99848.66;;;14.83;62.57